Terminal Aerodrome Forecast
Issued by NWS Portland, OR

Home | Current Version | Previous Version | Text Only | Print | Product List | Glossary On
Versions: 1 2 3 4 5 6 7 8 9 10 11 12 13 14 15 16 17 18 19 20 21 22 23 24 25 26
000
FTUS46 KPQR 312101 AAB
TAFPDX
TAF AMD
KPDX 312101Z 3121/0118 18006KT P6SM -RA BKN019 OVC040
     FM010100 29007KT P6SM VCSH SCT020 BKN030
     FM011000 20004KT P6SM OVC019
     FM011700 20004KT P6SM SCT020 BKN050=

USA.gov is the U.S. government's official web portal to all federal, state and local government web resources and services.